MMPN/UPN METAR and TAF weather

Enter ICAO airport designator
Station Type Date Time Source
MMPN METAR 2019/02/18 01:42 UTC NOAA

MMPN 180142Z 00000KT 12SM SKC 21/08 A3014 RMK HZY


Station Type Date Time Source
MMPN Decoded METAR 2019/02/18 01:42 UTC NOAA

Uruapan / Gen Rayon, Mexico (MMPN) 19-24N 102-02W
Feb 17, 2019 - 08:42 PM EST / 2019.02.18 0142 UTC
Wind: Calm:0
Visibility: 12 mile(s):0
Sky conditions: clear
Temperature: 69 F (21 C)
Dew Point: 46 F (8 C)
Relative Humidity: 43%
Pressure (altimeter): 30.14 in. Hg (1020 hPa)
ob: MMPN 180142Z 00000KT 12SM SKC 21/08 A3014 RMK HZY
cycle: 1

Station Type Date Time Source
MMPN TAF 2019/02/17 18:34 UTC NOAA

TAF MMPN 171627Z 1718/1818 18010KT P6SM SKC
FM180400 35005KT P6SM SKC
FM181600 18006KT P6SM SKC


Example: see airport list